Piscataquog River @ Goffstown, Nh

Piscataquog River at Goffstown
 Total Drainage Area: 202 sq. miles 
 Drainage Area Controlled by Corps Dams: 64 sq. miles (32%) 
 Warning Flow/Stage: 1,180 cfs / 6.0 feet 
 Flood Flow/Stage: 3,660 cfs / 8.5 feet 
Date Time
(Eastern)
Stage
(ft)
Flow
(cfs)
CSM
(cfs / sq. mi.)
Jun-25 01:30 am 4.19 203 1.0
Jun-25 12:30 am 4.23 214 1.1
Jun-24 11:30 pm 4.28 227 1.1
Jun-24 10:30 pm 4.31 236 1.2
Jun-24 09:30 pm 4.35 248 1.2
Jun-24 08:30 pm 4.35 248 1.2
Jun-24 07:30 pm 4.37 255 1.3
Jun-24 06:30 pm 4.37 255 1.3
Jun-24 05:30 pm 4.37 255 1.3
Jun-24 04:30 pm 4.40 264 1.3
Jun-24 03:30 pm 4.40 264 1.3
Jun-24 02:30 pm 4.44 278 1.4
Jun-24 01:30 pm 4.47 288 1.4
Jun-24 12:30 pm 4.35 248 1.2
Jun-24 11:30 am 3.21 31 .2
Jun-24 10:30 am 4.06 170 .8
Jun-24 09:30 am 4.30 233 1.2
Jun-24 08:30 am 4.20 206 1.0
Jun-24 07:30 am 4.18 200 1.0
Jun-24 06:30 am 4.16 195 1.0
Jun-24 05:30 am 4.16 195 1.0
Jun-24 04:30 am 4.17 198 1.0
Jun-24 03:30 am 4.17 198 1.0
Jun-24 02:30 am 4.17 198 1.0
Jun-24 01:30 am 4.17 198 1.0
Report Generated June 25, 2024 01:59 am